Terminal Aerodrome Forecast
Issued by NWS

Home | Current Version | Previous Version | Text Only | Print | Product List | Glossary Off
Versions: 1 2 3 4 5 6 7 8 9 10 11 12 13 14 15 16 17 18 19

000
FTUS43 KABR 251100
TAFPIR
TAF
KPIR 251120Z 2512/2612 31017G22KT P6SM OVC028
     FM251800 31008KT P6SM OVC030
     FM252100 26007KT P6SM SCT100=

USA.gov is the U.S. government's official web portal to all federal, state and local government web resources and services.